Time;durP1;ratioP1;P1;durP2;ratioP2;P2;SDS_P1;SDS_P2;PMS_P1;PMS_P2;Temp;Humidity;BMP_temperature;BMP_pressure;BME280_temperature;BME280_humidity;BME280_pressure;Samples;Min_cycle;Max_cycle;Signal;HPM_P1;HPM_P2
2023/01/01 00:01:15;;;;;;;267.77;170.47;;;11.10;1.00;;;;;;5076330;28;20460;-74
2023/01/01 00:03:44;;;;;;;234.80;153.77;;;11.10;1.00;;;;;;5077149;28;20445;-75
2023/01/01 00:06:12;;;;;;;217.43;130.07;;;11.10;1.00;;;;;;5076215;28;20929;-75
2023/01/01 00:08:40;;;;;;;192.97;120.17;;;11.10;1.00;;;;;;5076444;28;20500;-74
2023/01/01 00:11:08;;;;;;;188.83;118.20;;;11.00;1.00;;;;;;5076725;28;20449;-75
2023/01/01 00:13:36;;;;;;;144.77;98.03;;;11.10;1.00;;;;;;5076682;28;20969;-74
2023/01/01 00:16:07;;;;;;;186.13;107.87;;;11.00;1.00;;;;;;5076545;28;20453;-74
2023/01/01 00:18:34;;;;;;;144.07;97.23;;;11.00;1.00;;;;;;5076718;28;20481;-75
2023/01/01 00:21:07;;;;;;;141.27;87.70;;;10.90;1.00;;;;;;5076782;28;20472;-72
2023/01/01 00:23:34;;;;;;;131.33;77.03;;;10.90;1.00;;;;;;5077048;28;20560;-74
2023/01/01 00:26:01;;;;;;;132.47;80.77;;;10.80;1.00;;;;;;5077056;28;20529;-73
2023/01/01 00:28:28;;;;;;;128.27;79.40;;;10.80;1.00;;;;;;5076906;28;20460;-74
2023/01/01 00:30:55;;;;;;;139.77;84.47;;;10.90;1.00;;;;;;5076942;28;20457;-74
2023/01/01 00:33:22;;;;;;;138.27;86.10;;;11.00;1.00;;;;;;5076672;28;20461;-75
2023/01/01 00:35:48;;;;;;;139.60;86.13;;;10.90;1.00;;;;;;5073023;28;20445;-75
2023/01/01 00:38:16;;;;;;;134.97;81.30;;;10.90;1.00;;;;;;5054035;28;20478;-75
2023/01/01 00:40:44;;;;;;;124.87;75.53;;;10.80;3.70;;;;;;5073753;28;20472;-75
2023/01/01 00:43:10;;;;;;;105.00;71.20;;;10.80;1.00;;;;;;5073319;28;20448;-74
2023/01/01 00:45:37;;;;;;;112.93;73.70;;;10.80;1.00;;;;;;5073712;28;20459;-75
2023/01/01 00:48:04;;;;;;;122.20;71.10;;;10.80;1.00;;;;;;5072761;28;20457;-73
2023/01/01 00:50:31;;;;;;;98.30;62.30;;;10.80;1.00;;;;;;5073399;28;20441;-74
2023/01/01 00:52:58;;;;;;;110.90;66.17;;;10.80;1.00;;;;;;5073785;28;20456;-74
2023/01/01 00:55:26;;;;;;;97.97;59.07;;;10.80;1.00;;;;;;5072590;28;20933;-75
2023/01/01 00:57:53;;;;;;;70.53;49.37;;;10.80;1.00;;;;;;5073095;28;20450;-74
2023/01/01 01:00:20;;;;;;;83.13;51.30;;;10.90;1.00;;;;;;5072742;28;20445;-75
2023/01/01 01:02:46;;;;;;;86.10;54.70;;;11.00;1.00;;;;;;5073434;28;20504;-74
2023/01/01 01:05:13;;;;;;;82.47;48.27;;;11.00;1.00;;;;;;5072346;28;20925;-74
2023/01/01 01:07:40;;;;;;;69.13;47.20;;;11.00;1.00;;;;;;5073077;28;20457;-75
2023/01/01 01:10:10;;;;;;;62.60;42.87;;;10.90;1.00;;;;;;5072171;28;20990;-74
2023/01/01 01:12:39;;;;;;;73.60;46.10;;;10.90;1.00;;;;;;5072927;28;20541;-75
2023/01/01 01:15:08;;;;;;;54.30;38.70;;;10.90;1.00;;;;;;5072160;28;20449;-74
2023/01/01 01:17:35;;;;;;;76.93;47.80;;;10.90;1.00;;;;;;5072797;28;20461;-74
2023/01/01 01:20:02;;;;;;;93.27;53.70;;;10.90;1.00;;;;;;5072060;28;20489;-73
2023/01/01 01:22:29;;;;;;;75.40;47.23;;;10.90;1.00;;;;;;5073149;28;20450;-74
2023/01/01 01:24:56;;;;;;;73.83;43.43;;;10.90;1.00;;;;;;5072911;28;20817;-74
2023/01/01 01:27:23;;;;;;;82.77;48.33;;;10.80;1.00;;;;;;5071627;28;20453;-74
2023/01/01 01:29:51;;;;;;;66.70;43.60;;;10.80;1.00;;;;;;5072710;28;20520;-74
2023/01/01 01:32:18;;;;;;;67.83;44.30;;;10.80;1.00;;;;;;5071883;28;20929;-74
2023/01/01 01:34:45;;;;;;;59.67;38.13;;;10.80;1.00;;;;;;5072731;28;20460;-74
2023/01/01 01:37:11;;;;;;;63.93;39.47;;;10.70;1.00;;;;;;5071487;28;20454;-74
2023/01/01 01:39:38;;;;;;;67.33;42.50;;;10.80;1.00;;;;;;5072177;28;20538;-74
2023/01/01 01:42:06;;;;;;;69.37;43.97;;;10.80;1.00;;;;;;5071880;28;20898;-74
2023/01/01 01:44:54;;;;;;;56.07;38.30;;;10.70;1.00;;;;;;5072490;28;20453;-74
2023/01/01 01:47:26;;;;;;;59.57;38.63;;;10.70;1.00;;;;;;5071099;28;20445;-74
2023/01/01 01:49:57;;;;;;;53.97;37.30;;;10.70;1.00;;;;;;5072434;28;20442;-74
2023/01/01 01:52:25;;;;;;;41.40;29.57;;;10.70;1.00;;;;;;5071726;28;20820;-74
2023/01/01 01:54:52;;;;;;;36.30;29.67;;;10.70;1.00;;;;;;5072458;28;20460;-74
2023/01/01 01:57:21;;;;;;;35.43;23.87;;;10.60;1.00;;;;;;5070997;28;20449;-74
2023/01/01 01:59:50;;;;;;;37.57;24.10;;;10.60;21.20;;;;;;5072284;28;20496;-74
2023/01/01 02:02:26;;;;;;;29.60;20.43;;;10.60;12.70;;;;;;5071347;28;20507;-74
2023/01/01 02:04:55;;;;;;;33.43;20.70;;;10.50;1.00;;;;;;5071784;28;20449;-74
2023/01/01 02:07:23;;;;;;;27.07;19.17;;;10.60;19.50;;;;;;5071227;28;20458;-74
2023/01/01 02:09:50;;;;;;;25.23;18.47;;;10.50;18.30;;;;;;5072082;28;20480;-74
2023/01/01 02:12:17;;;;;;;32.77;21.87;;;10.50;9.20;;;;;;5071455;28;20453;-74
2023/01/01 02:14:44;;;;;;;30.20;20.57;;;10.50;24.50;;;;;;5071609;28;20450;-74
2023/01/01 02:17:17;;;;;;;29.03;18.87;;;10.40;36.60;;;;;;5070955;28;20453;-74
2023/01/01 02:20:01;;;;;;;32.33;22.43;;;10.40;38.20;;;;;;5071572;28;20999;-74
2023/01/01 02:22:36;;;;;;;28.60;17.37;;;10.40;40.50;;;;;;5071869;28;20479;-74
2023/01/01 02:25:19;;;;;;;26.70;20.17;;;10.30;30.40;;;;;;5070565;28;20438;-74
2023/01/01 02:27:51;;;;;;;26.67;15.60;;;10.30;58.50;;;;;;5070980;28;20672;-74
2023/01/01 02:30:20;;;;;;;20.57;14.83;;;10.30;57.40;;;;;;5071168;28;20452;-74
2023/01/01 02:32:50;;;;;;;18.70;11.90;;;10.40;42.70;;;;;;5071455;28;20449;-74
2023/01/01 02:35:37;;;;;;;23.13;14.07;;;10.40;32.60;;;;;;5070796;28;20441;-73
2023/01/01 02:38:08;;;;;;;22.80;13.17;;;10.30;27.60;;;;;;5070725;28;20457;-72
2023/01/01 02:40:38;;;;;;;19.33;13.43;;;10.30;33.10;;;;;;5071767;28;20439;-73
2023/01/01 02:43:05;;;;;;;24.30;13.70;;;10.40;33.70;;;;;;5070667;28;20465;-73
2023/01/01 02:45:34;;;;;;;21.27;12.40;;;10.30;43.00;;;;;;5071278;28;20453;-72
2023/01/01 02:48:04;;;;;;;16.63;12.50;;;10.30;37.70;;;;;;5071280;28;20456;-73
2023/01/01 02:50:31;;;;;;;16.93;11.80;;;10.20;28.60;;;;;;5071161;28;20467;-73
2023/01/01 02:53:13;;;;;;;13.50;9.10;;;10.20;55.60;;;;;;5071111;28;20464;-73
2023/01/01 02:55:54;;;;;;;22.13;12.73;;;10.30;40.00;;;;;;5071032;28;20923;-73
2023/01/01 03:01:21;;;;;;;18.83;11.70;;;10.30;44.60;;;;;;5070389;28;20209;-73
2023/01/01 03:03:56;;;;;;;16.07;12.67;;;10.30;20.90;;;;;;5070830;28;20452;-73
2023/01/01 03:06:29;;;;;;;14.70;10.57;;;10.20;32.10;;;;;;5069800;28;20445;-73
2023/01/01 03:09:08;;;;;;;15.87;10.63;;;10.20;61.10;;;;;;5057837;28;20831;-73
2023/01/01 03:11:44;;;;;;;12.83;8.80;;;10.10;21.80;;;;;;5071086;28;20440;-73
2023/01/01 03:14:20;;;;;;;13.97;9.20;;;10.10;56.10;;;;;;5070457;28;20440;-73
2023/01/01 03:16:50;;;;;;;14.80;9.97;;;10.10;45.70;;;;;;5070649;28;20460;-73
2023/01/01 03:19:20;;;;;;;14.23;10.23;;;10.10;53.80;;;;;;5070129;28;20477;-73
2023/01/01 03:21:50;;;;;;;13.77;8.33;;;10.10;84.50;;;;;;5070715;28;20449;-73
2023/01/01 03:24:22;;;;;;;13.50;10.20;;;10.10;78.80;;;;;;5070365;28;20497;-72
2023/01/01 03:26:53;;;;;;;12.97;9.83;;;10.10;51.60;;;;;;5070448;28;20936;-73
2023/01/01 03:29:21;;;;;;;11.27;8.10;;;10.00;87.80;;;;;;5070052;28;20956;-73
2023/01/01 03:31:53;;;;;;;14.13;9.17;;;10.00;92.30;;;;;;5070920;28;20807;-73
2023/01/01 03:34:25;;;;;;;12.20;7.77;;;10.10;78.60;;;;;;5070431;28;20441;-73
2023/01/01 03:36:57;;;;;;;11.10;7.20;;;10.00;81.10;;;;;;5070571;28;20467;-73
2023/01/01 03:39:30;;;;;;;11.83;7.73;;;9.90;99.50;;;;;;5070278;28;20476;-73
2023/01/01 03:42:08;;;;;;;13.23;8.77;;;10.00;84.80;;;;;;5071056;28;20459;-73
2023/01/01 03:44:41;;;;;;;17.80;8.67;;;9.90;77.50;;;;;;5058531;28;20475;-73
2023/01/01 03:47:10;;;;;;;11.97;8.17;;;9.90;89.20;;;;;;5069571;28;20535;-72
2023/01/01 03:49:37;;;;;;;14.53;7.97;;;10.00;79.80;;;;;;5070636;28;20946;-73
2023/01/01 03:52:15;;;;;;;11.93;7.83;;;10.00;72.10;;;;;;5069990;28;20470;-73
2023/01/01 03:54:48;;;;;;;11.03;6.93;;;9.90;54.20;;;;;;5070822;28;20528;-73
2023/01/01 03:57:22;;;;;;;10.00;7.83;;;9.80;96.00;;;;;;5069781;28;20793;-73
2023/01/01 03:59:57;;;;;;;11.73;6.60;;;9.80;99.90;;;;;;5070789;28;20474;-73
2023/01/01 04:02:32;;;;;;;11.20;7.40;;;9.80;99.90;;;;;;5070257;28;20736;-73
2023/01/01 04:05:01;;;;;;;9.77;6.20;;;9.70;99.20;;;;;;5070942;28;20773;-73
2023/01/01 04:07:30;;;;;;;12.43;8.40;;;9.60;99.90;;;;;;5069934;28;20463;-73
2023/01/01 04:10:01;;;;;;;8.73;5.83;;;9.60;99.90;;;;;;5071375;28;20506;-73
2023/01/01 04:12:29;;;;;;;9.43;5.77;;;9.60;99.90;;;;;;5074683;28;20448;-73
2023/01/01 04:14:56;;;;;;;10.70;6.60;;;9.70;99.90;;;;;;5074580;28;20451;-73
2023/01/01 04:17:23;;;;;;;11.87;6.83;;;9.60;99.90;;;;;;5073049;28;20454;-73
2023/01/01 04:19:51;;;;;;;10.87;4.50;;;9.50;99.90;;;;;;5073919;28;20508;-73
2023/01/01 04:22:22;;;;;;;8.50;6.10;;;9.60;99.90;;;;;;5073137;28;20450;-73
2023/01/01 04:24:48;;;;;;;16.60;5.50;;;9.60;99.90;;;;;;5074343;28;20465;-73
2023/01/01 04:27:15;;;;;;;8.20;5.87;;;9.50;99.90;;;;;;5073116;28;20448;-73
2023/01/01 04:29:42;;;;;;;7.40;5.10;;;9.30;99.90;;;;;;5073628;28;20457;-72
2023/01/01 04:32:09;;;;;;;7.00;5.07;;;9.30;99.90;;;;;;5073408;28;20454;-73
2023/01/01 04:34:35;;;;;;;8.43;5.57;;;9.40;99.90;;;;;;5073909;28;20457;-73
2023/01/01 04:37:04;;;;;;;10.27;6.57;;;9.50;99.90;;;;;;5072833;28;20460;-72
2023/01/01 04:39:30;;;;;;;6.83;4.33;;;9.40;99.90;;;;;;5073801;28;20594;-72
2023/01/01 04:41:57;;;;;;;11.70;4.47;;;9.40;99.90;;;;;;5073958;28;20450;-73
2023/01/01 04:44:24;;;;;;;11.23;6.43;;;9.40;99.90;;;;;;5073060;28;20451;-72
2023/01/01 04:46:51;;;;;;;10.53;5.00;;;9.40;99.90;;;;;;5073353;28;20458;-72
2023/01/01 04:49:18;;;;;;;8.83;4.23;;;9.40;99.90;;;;;;5073055;28;20461;-72
2023/01/01 04:51:45;;;;;;;11.37;5.33;;;9.40;99.90;;;;;;5073491;28;20837;-72
2023/01/01 04:54:13;;;;;;;10.30;4.40;;;9.50;99.90;;;;;;5059425;28;20484;-72
2023/01/01 04:56:40;;;;;;;8.00;3.93;;;9.50;99.90;;;;;;5072965;28;20451;-72
2023/01/01 04:59:07;;;;;;;11.07;6.63;;;9.50;99.90;;;;;;5072716;28;20457;-72
2023/01/01 05:01:33;;;;;;;10.90;6.27;;;9.60;99.90;;;;;;5073259;28;20449;-72
2023/01/01 05:04:01;;;;;;;15.33;9.87;;;9.60;99.90;;;;;;5073210;28;20466;-73
2023/01/01 05:06:28;;;;;;;12.37;6.87;;;9.70;99.90;;;;;;5072911;28;20600;-72
2023/01/01 05:08:56;;;;;;;8.60;6.33;;;9.80;99.90;;;;;;5072979;28;20489;-73
2023/01/01 05:11:28;;;;;;;7.10;5.33;;;9.90;87.50;;;;;;5072313;28;20534;-73
2023/01/01 05:13:56;;;;;;;10.57;5.13;;;9.80;74.60;;;;;;5073029;28;20923;-73
2023/01/01 05:16:24;;;;;;;8.03;5.43;;;9.90;88.20;;;;;;5072182;28;20468;-73
2023/01/01 05:18:51;;;;;;;7.93;5.30;;;9.80;99.40;;;;;;5073105;28;20467;-73
2023/01/01 05:21:20;;;;;;;6.23;4.37;;;9.90;67.50;;;;;;5071643;28;20492;-73
2023/01/01 05:23:47;;;;;;;7.13;4.00;;;9.90;34.10;;;;;;5073002;28;20563;-73
2023/01/01 05:26:16;;;;;;;6.30;4.23;;;9.80;54.10;;;;;;5071749;28;20444;-73
2023/01/01 05:28:44;;;;;;;5.47;3.70;;;9.90;44.20;;;;;;5072817;28;20452;-73
2023/01/01 05:31:13;;;;;;;6.10;3.97;;;9.70;46.70;;;;;;5072207;28;20498;-73
2023/01/01 05:33:41;;;;;;;5.90;3.70;;;9.80;95.30;;;;;;5072854;28;20448;-73
2023/01/01 05:36:10;;;;;;;4.97;3.13;;;9.70;54.80;;;;;;5071413;28;20450;-73
2023/01/01 05:38:37;;;;;;;8.23;4.47;;;9.70;89.30;;;;;;5072792;28;20602;-73
2023/01/01 05:41:07;;;;;;;7.23;3.83;;;9.70;92.60;;;;;;5071948;28;20509;-72
2023/01/01 05:43:34;;;;;;;4.57;3.10;;;9.80;63.10;;;;;;5072297;28;20520;-73
2023/01/01 05:46:04;;;;;;;4.70;2.47;;;9.80;80.20;;;;;;5071905;28;20469;-71
2023/01/01 05:48:31;;;;;;;7.00;3.33;;;9.90;44.60;;;;;;5072646;28;20448;-73
2023/01/01 05:51:03;;;;;;;4.87;2.60;;;9.90;12.00;;;;;;5059463;28;20458;-73
2023/01/01 05:53:30;;;;;;;5.10;3.57;;;9.80;37.40;;;;;;5072401;28;20453;-72
2023/01/01 05:55:57;;;;;;;3.90;3.50;;;9.80;91.40;;;;;;5072217;28;20937;-73
2023/01/01 05:58:25;;;;;;;3.63;2.93;;;9.80;65.50;;;;;;5071306;28;20454;-73
2023/01/01 06:00:52;;;;;;;5.13;3.40;;;9.80;75.50;;;;;;5072404;28;20496;-73
2023/01/01 06:03:20;;;;;;;5.63;2.90;;;9.90;19.50;;;;;;5071919;28;20453;-73
2023/01/01 06:05:47;;;;;;;6.17;2.93;;;9.80;27.50;;;;;;5072469;28;20453;-73
2023/01/01 06:08:14;;;;;;;4.43;3.03;;;9.90;1.50;;;;;;5071031;28;20454;-73
2023/01/01 06:10:41;;;;;;;5.90;3.80;;;9.80;6.60;;;;;;5072445;28;20457;-73
2023/01/01 06:13:08;;;;;;;5.90;3.13;;;9.90;28.80;;;;;;5071391;28;20462;-73
2023/01/01 06:15:34;;;;;;;6.30;2.97;;;9.90;20.00;;;;;;5071951;28;20932;-73
2023/01/01 06:18:01;;;;;;;5.80;2.87;;;9.90;11.30;;;;;;5071442;28;20446;-71
2023/01/01 06:20:29;;;;;;;3.73;2.90;;;9.90;1.00;;;;;;5072241;28;20552;-73
2023/01/01 06:22:56;;;;;;;5.80;3.37;;;9.90;1.00;;;;;;5071950;28;20460;-73
2023/01/01 06:25:23;;;;;;;3.93;3.20;;;9.90;25.50;;;;;;5071599;28;20768;-73
2023/01/01 06:27:50;;;;;;;7.20;3.40;;;9.80;4.30;;;;;;5071541;28;20525;-73
2023/01/01 06:30:17;;;;;;;6.77;3.33;;;9.80;23.30;;;;;;5071492;28;20466;-73
2023/01/01 06:32:43;;;;;;;3.97;3.03;;;9.90;20.30;;;;;;5071077;28;20461;-73
2023/01/01 06:35:10;;;;;;;6.07;3.50;;;9.80;30.80;;;;;;5071338;28;20455;-73
2023/01/01 06:37:38;;;;;;;4.63;3.03;;;9.80;22.50;;;;;;5071126;28;20468;-73
2023/01/01 06:40:06;;;;;;;4.27;3.27;;;9.80;26.30;;;;;;5071569;28;20476;-72
2023/01/01 06:42:33;;;;;;;4.50;2.83;;;9.80;13.30;;;;;;5072167;28;20616;-73
2023/01/01 06:45:00;;;;;;;5.20;3.07;;;9.80;33.90;;;;;;5073920;28;20461;-73
2023/01/01 06:47:27;;;;;;;5.90;2.83;;;9.80;40.80;;;;;;5074036;28;20453;-73
2023/01/01 06:49:54;;;;;;;4.77;3.40;;;9.70;8.60;;;;;;5075254;28;20452;-73
2023/01/01 06:52:21;;;;;;;5.77;3.07;;;9.80;51.70;;;;;;5074850;28;21160;-72
2023/01/01 06:54:49;;;;;;;5.93;3.50;;;9.70;45.20;;;;;;5077215;28;20450;-72
2023/01/01 06:57:15;;;;;;;3.77;2.40;;;9.70;21.10;;;;;;5076836;28;20455;-73
2023/01/01 06:59:42;;;;;;;4.27;3.00;;;9.70;36.90;;;;;;5077860;28;20445;-72
2023/01/01 07:02:11;;;;;;;4.37;2.60;;;9.70;13.60;;;;;;5078615;28;20459;-72
2023/01/01 07:04:38;;;;;;;5.83;2.80;;;9.80;16.50;;;;;;5080758;28;20443;-72
2023/01/01 07:07:05;;;;;;;3.23;2.40;;;9.70;7.30;;;;;;5079462;28;20470;-72
2023/01/01 07:09:32;;;;;;;2.93;2.37;;;9.80;19.90;;;;;;5078667;28;20480;-72
2023/01/01 07:12:00;;;;;;;5.20;3.00;;;9.70;11.00;;;;;;5072299;28;20478;-73
2023/01/01 07:14:27;;;;;;;3.83;1.93;;;9.70;28.60;;;;;;5072375;28;20463;-72
2023/01/01 07:16:53;;;;;;;4.60;2.30;;;9.70;25.00;;;;;;5071076;28;20449;-73
2023/01/01 07:19:20;;;;;;;4.63;2.73;;;9.60;35.30;;;;;;5070974;28;20450;-73
2023/01/01 07:21:53;;;;;;;3.37;1.90;;;9.80;15.00;;;;;;5071313;28;20485;-73
2023/01/01 07:24:20;;;;;;;4.10;2.23;;;9.70;27.80;;;;;;5071065;28;20860;-72
2023/01/01 07:26:47;;;;;;;5.40;2.83;;;9.80;25.40;;;;;;5071205;28;20442;-74
2023/01/01 07:29:16;;;;;;;3.83;3.00;;;9.70;25.70;;;;;;5070456;28;21022;-73
2023/01/01 07:31:44;;;;;;;7.47;3.10;;;9.70;21.50;;;;;;5071400;28;20448;-73
2023/01/01 07:34:13;;;;;;;3.20;2.20;;;9.80;6.10;;;;;;5070641;28;20444;-73
2023/01/01 07:36:41;;;;;;;3.70;2.33;;;9.70;1.00;;;;;;5070494;28;20446;-73
2023/01/01 07:39:07;;;;;;;4.27;2.30;;;9.70;1.00;;;;;;5070371;28;20983;-73
2023/01/01 07:41:34;;;;;;;7.03;2.10;;;9.60;13.70;;;;;;5071349;28;20841;-73
2023/01/01 07:44:02;;;;;;;3.60;3.03;;;9.70;24.80;;;;;;5071729;28;20461;-71
2023/01/01 07:46:30;;;;;;;5.00;2.90;;;9.60;12.60;;;;;;5075017;28;20451;-73
2023/01/01 07:48:57;;;;;;;3.90;2.03;;;9.60;46.60;;;;;;5075178;28;20449;-73
2023/01/01 07:51:23;;;;;;;6.00;2.70;;;9.60;11.30;;;;;;5074597;28;20451;-73
2023/01/01 07:53:50;;;;;;;5.23;2.70;;;9.70;8.30;;;;;;5074829;28;20449;-73
2023/01/01 07:56:17;;;;;;;4.33;2.93;;;9.90;22.90;;;;;;5073664;28;20449;-73
2023/01/01 07:58:44;;;;;;;3.00;2.17;;;10.20;1.00;;;;;;5074881;28;20451;-73
2023/01/01 08:01:12;;;;;;;4.90;2.57;;;10.00;1.00;;;;;;5074491;28;20841;-73
2023/01/01 08:03:40;;;;;;;3.63;2.17;;;10.00;1.00;;;;;;5074448;28;20463;-73
2023/01/01 08:06:09;;;;;;;2.47;1.93;;;10.10;1.00;;;;;;5073916;28;20456;-73
2023/01/01 08:08:36;;;;;;;6.63;2.50;;;10.10;1.00;;;;;;5074444;28;20488;-73
2023/01/01 08:11:03;;;;;;;8.73;2.07;;;10.10;1.00;;;;;;5074298;28;20455;-72
2023/01/01 08:13:29;;;;;;;2.23;1.80;;;9.90;1.00;;;;;;5074727;28;20460;-73
2023/01/01 08:15:58;;;;;;;4.10;2.70;;;9.80;1.00;;;;;;5073861;28;20462;-73
2023/01/01 08:18:24;;;;;;;4.80;2.30;;;9.80;1.00;;;;;;5073968;28;20448;-73
2023/01/01 08:20:53;;;;;;;3.53;2.47;;;9.90;1.00;;;;;;5074310;28;20946;-73
2023/01/01 08:23:20;;;;;;;4.07;2.27;;;10.00;1.00;;;;;;5073681;28;20811;-73
2023/01/01 08:25:46;;;;;;;3.50;2.20;;;10.00;1.00;;;;;;5074033;28;20448;-73
2023/01/01 08:28:13;;;;;;;4.53;2.57;;;10.00;1.00;;;;;;5073403;28;20450;-73
2023/01/01 08:30:40;;;;;;;3.20;2.00;;;10.00;1.00;;;;;;5074564;28;20443;-74
2023/01/01 08:33:07;;;;;;;3.90;2.30;;;9.90;1.00;;;;;;5073639;28;20458;-73
2023/01/01 08:35:37;;;;;;;3.33;2.37;;;9.90;1.00;;;;;;5074196;28;20448;-72
2023/01/01 08:38:05;;;;;;;3.97;2.50;;;9.70;1.00;;;;;;5060299;28;20471;-73
2023/01/01 08:40:31;;;;;;;3.97;2.40;;;9.60;17.90;;;;;;5073990;28;20488;-73
2023/01/01 08:42:58;;;;;;;3.83;2.37;;;9.60;36.60;;;;;;5074172;28;20452;-73
2023/01/01 08:45:25;;;;;;;2.60;1.73;;;9.60;57.90;;;;;;5073113;28;20454;-73
2023/01/01 08:47:52;;;;;;;3.10;1.97;;;9.70;60.30;;;;;;5073255;28;20960;-73
2023/01/01 08:50:18;;;;;;;3.10;1.90;;;9.70;59.70;;;;;;5073049;28;20447;-73
2023/01/01 08:52:45;;;;;;;8.73;2.33;;;9.80;19.20;;;;;;5073764;28;20452;-73
2023/01/01 08:55:13;;;;;;;4.30;3.10;;;9.90;1.00;;;;;;5072762;28;20453;-73
2023/01/01 08:57:40;;;;;;;3.30;2.13;;;10.00;1.00;;;;;;5073091;28;20791;-73
2023/01/01 09:00:08;;;;;;;3.30;2.97;;;10.10;1.00;;;;;;5072870;28;20451;-73
2023/01/01 09:02:35;;;;;;;3.97;2.93;;;10.30;1.00;;;;;;5073728;28;20441;-73
2023/01/01 09:05:02;;;;;;;4.90;2.40;;;10.30;1.00;;;;;;5072998;28;20448;-72
2023/01/01 09:07:29;;;;;;;4.47;2.80;;;10.40;1.00;;;;;;5073293;28;20506;-73
2023/01/01 09:09:55;;;;;;;3.27;2.50;;;10.40;1.00;;;;;;5073625;28;20495;-73
2023/01/01 09:12:24;;;;;;;3.43;2.10;;;10.50;1.00;;;;;;5072919;28;20811;-73
2023/01/01 09:14:50;;;;;;;3.40;2.20;;;10.50;1.00;;;;;;5073352;28;20463;-73
2023/01/01 09:17:17;;;;;;;4.20;2.60;;;10.50;1.00;;;;;;5072394;28;20468;-73
2023/01/01 09:19:44;;;;;;;3.40;2.40;;;10.50;1.00;;;;;;5073302;28;20795;-73
2023/01/01 09:22:11;;;;;;;3.67;1.97;;;10.60;1.00;;;;;;5072662;28;20485;-73
2023/01/01 09:24:38;;;;;;;2.43;1.90;;;10.70;1.00;;;;;;5072947;28;20455;-73
2023/01/01 09:27:05;;;;;;;4.10;2.10;;;10.80;1.00;;;;;;5072270;28;20445;-72
2023/01/01 09:29:33;;;;;;;2.73;2.17;;;10.80;99.90;;;;;;5073059;28;20461;-73
2023/01/01 09:32:00;;;;;;;3.90;2.73;;;10.90;99.90;;;;;;5073289;28;20454;-73
2023/01/01 09:34:27;;;;;;;4.93;2.60;;;11.10;1.00;;;;;;5073176;28;20459;-73
2023/01/01 09:36:54;;;;;;;4.03;2.57;;;11.10;1.00;;;;;;5072408;28;20465;-73
2023/01/01 09:39:21;;;;;;;3.70;2.87;;;11.20;1.00;;;;;;5072313;28;21124;-73
2023/01/01 09:42:04;;;;;;;6.10;3.30;;;11.40;1.00;;;;;;5072589;28;20559;-73
2023/01/01 09:44:57;;;;;;;9.50;3.47;;;11.50;1.00;;;;;;5059718;28;20446;-73
2023/01/01 09:47:29;;;;;;;6.10;2.93;;;11.70;99.90;;;;;;5071466;28;20446;-73
2023/01/01 09:50:03;;;;;;;3.90;2.80;;;11.60;99.90;;;;;;5072893;28;20450;-73
2023/01/01 09:52:39;;;;;;;3.93;2.80;;;11.60;99.90;;;;;;5072338;28;20473;-73
2023/01/01 09:55:18;;;;;;;3.57;2.80;;;11.70;93.90;;;;;;5071802;28;20437;-73
2023/01/01 09:57:44;;;;;;;5.63;3.83;;;11.70;99.90;;;;;;5072357;28;20797;-73
2023/01/01 10:00:18;;;;;;;2.53;2.33;;;11.60;1.00;;;;;;5071684;28;20956;-73
2023/01/01 10:03:06;;;;;;;4.80;3.80;;;11.60;1.00;;;;;;5072583;28;20470;-73
2023/01/01 10:05:42;;;;;;;3.30;2.53;;;11.60;1.00;;;;;;5072349;28;20815;-73
2023/01/01 10:08:18;;;;;;;5.43;3.67;;;11.70;1.00;;;;;;5071476;28;20522;-73
2023/01/01 10:10:57;;;;;;;5.33;3.07;;;11.70;1.00;;;;;;5072530;28;20803;-73
2023/01/01 10:13:31;;;;;;;4.60;2.90;;;11.90;1.00;;;;;;5071821;28;20793;-73
2023/01/01 10:16:03;;;;;;;5.10;3.83;;;12.00;99.90;;;;;;5071738;28;20964;-73
2023/01/01 10:18:34;;;;;;;4.53;3.07;;;12.10;99.90;;;;;;5072236;28;20445;-73
2023/01/01 10:21:06;;;;;;;7.30;3.70;;;12.20;75.60;;;;;;5072042;28;20474;-71
2023/01/01 10:23:40;;;;;;;6.67;4.07;;;12.20;1.00;;;;;;5059493;28;20464;-73
2023/01/01 10:26:13;;;;;;;5.67;3.47;;;12.30;99.90;;;;;;5070753;28;20450;-73
2023/01/01 10:28:45;;;;;;;6.20;4.00;;;12.30;1.00;;;;;;5072147;28;20442;-73
2023/01/01 10:31:18;;;;;;;7.47;4.60;;;12.40;99.90;;;;;;5071059;28;20445;-73
2023/01/01 10:33:46;;;;;;;9.40;4.07;;;12.50;1.00;;;;;;5072092;28;20453;-73
2023/01/01 10:36:17;;;;;;;6.47;4.03;;;12.60;99.90;;;;;;5070510;28;20480;-73
2023/01/01 10:38:44;;;;;;;6.13;3.23;;;12.70;1.00;;;;;;5071977;28;20461;-73
2023/01/01 10:41:12;;;;;;;5.00;2.97;;;12.80;1.00;;;;;;5070832;28;20489;-73
2023/01/01 10:43:39;;;;;;;7.20;3.43;;;12.90;1.00;;;;;;5071878;28;20446;-73
2023/01/01 10:46:06;;;;;;;7.47;3.87;;;13.00;1.00;;;;;;5057783;28;20450;-73
2023/01/01 10:48:35;;;;;;;7.07;4.00;;;13.20;99.90;;;;;;5071482;28;20959;-73
2023/01/01 10:51:04;;;;;;;4.20;3.30;;;13.20;91.50;;;;;;5058054;28;20521;-71
2023/01/01 10:53:33;;;;;;;3.87;2.27;;;13.40;1.00;;;;;;5071540;28;20453;-73
2023/01/01 10:56:06;;;;;;;4.63;2.47;;;13.70;99.90;;;;;;5071335;28;20457;-73
2023/01/01 10:58:42;;;;;;;2.53;2.00;;;14.20;1.00;;;;;;5071575;28;20446;-73
2023/01/01 11:01:10;;;;;;;2.03;1.50;;;14.30;1.00;;;;;;5071075;28;20487;-73
2023/01/01 11:03:53;;;;;;;2.67;1.93;;;14.50;1.00;;;;;;5071147;28;20956;-73
2023/01/01 11:06:22;;;;;;;4.40;2.40;;;14.50;1.00;;;;;;5070679;28;20445;-73
2023/01/01 11:08:51;;;;;;;2.83;2.47;;;14.50;1.00;;;;;;5071197;28;20485;-73
2023/01/01 11:11:22;;;;;;;3.17;1.60;;;14.60;1.00;;;;;;5070952;28;20453;-73
2023/01/01 11:13:54;;;;;;;2.00;1.80;;;14.80;1.00;;;;;;5058568;28;20445;-73
2023/01/01 11:16:21;;;;;;;3.00;2.03;;;14.90;1.00;;;;;;5070393;28;20445;-73
2023/01/01 11:18:50;;;;;;;2.87;1.87;;;15.00;1.00;;;;;;5070890;28;20442;-73
2023/01/01 11:21:21;;;;;;;3.40;2.00;;;15.30;99.90;;;;;;5070542;28;20482;-73
2023/01/01 11:23:49;;;;;;;3.87;1.73;;;15.20;99.90;;;;;;5071220;28;20453;-73
2023/01/01 11:26:25;;;;;;;2.50;1.60;;;15.30;99.90;;;;;;5069996;28;20446;-73
2023/01/01 11:29:05;;;;;;;3.87;2.67;;;15.40;99.90;;;;;;5071241;28;20530;-73
2023/01/01 11:31:38;;;;;;;3.10;1.97;;;15.40;99.90;;;;;;5058087;28;20434;-75
2023/01/01 11:34:25;;;;;;;1.50;1.40;;;15.50;99.90;;;;;;5070545;28;20449;-73
2023/01/01 11:36:53;;;;;;;2.10;1.83;;;15.50;99.90;;;;;;5070862;28;20461;-74
2023/01/01 11:39:25;;;;;;;1.80;1.70;;;15.60;99.90;;;;;;5070398;28;20453;-74
2023/01/01 11:41:53;;;;;;;1.60;1.17;;;;;;;;;;5071116;28;20572;-74
2023/01/01 11:44:26;;;;;;;2.17;1.33;;;;;;;;;;5070462;28;20442;-73
2023/01/01 11:46:53;;;;;;;2.53;1.77;;;;;;;;;;5070863;28;20454;-74
2023/01/01 11:49:23;;;;;;;2.07;1.60;;;;;;;;;;5070337;28;20788;-74
2023/01/01 11:51:51;;;;;;;2.33;1.47;;;;;;;;;;5071155;28;20457;-74
2023/01/01 11:54:31;;;;;;;3.30;1.70;;;;;;;;;;5056994;28;20442;-74
2023/01/01 11:57:01;;;;;;;2.77;1.67;;;;;;;;;;5070656;28;20873;-74
2023/01/01 11:59:32;;;;;;;5.03;1.53;;;;;;;;;;5071466;28;20445;-75
2023/01/01 12:02:02;;;;;;;1.90;1.33;;;;;;;;;;5070957;28;20485;-74
2023/01/01 12:04:32;;;;;;;2.80;1.83;;;;;;;;;;5071122;28;20441;-74
2023/01/01 12:07:03;;;;;;;2.73;2.00;;;;;;;;;;5070390;28;20464;-75
2023/01/01 12:09:33;;;;;;;6.93;1.50;;;;;;;;;;5070899;28;20485;-74
2023/01/01 12:12:06;;;;;;;3.87;1.43;;;15.80;99.90;;;;;;5070894;28;20453;-74
2023/01/01 12:14:38;;;;;;;2.50;1.43;;;16.10;99.90;;;;;;5070680;28;20438;-73
2023/01/01 12:17:16;;;;;;;5.00;1.60;;;15.90;99.90;;;;;;5057341;28;20445;-73
2023/01/01 12:19:54;;;;;;;3.27;1.37;;;16.20;99.90;;;;;;5070761;28;20932;-73
2023/01/01 12:22:20;;;;;;;1.80;1.30;;;16.30;99.90;;;;;;5069917;28;20476;-73
2023/01/01 12:24:49;;;;;;;2.93;2.17;;;16.30;99.90;;;;;;5070547;28;20454;-73
2023/01/01 12:27:25;;;;;;;4.33;1.13;;;16.20;99.90;;;;;;5069908;28;20446;-74
2023/01/01 12:30:05;;;;;;;3.60;1.30;;;16.30;99.90;;;;;;5070631;28;20460;-73
2023/01/01 12:32:54;;;;;;;2.50;1.67;;;16.40;99.90;;;;;;5073735;28;20437;-73
2023/01/01 12:35:31;;;;;;;3.03;1.40;;;16.30;99.90;;;;;;5073338;28;21327;-73
2023/01/01 12:38:07;;;;;;;3.37;1.90;;;16.60;99.90;;;;;;5074307;28;20460;-75
2023/01/01 12:40:51;;;;;;;4.70;1.30;;;16.40;99.90;;;;;;5074125;28;20773;-74
2023/01/01 12:43:25;;;;;;;2.23;1.60;;;16.50;99.90;;;;;;5073492;28;20481;-74
2023/01/01 12:46:29;;;;;;;2.43;1.27;;;16.50;99.90;;;;;;5073661;28;20489;-74
2023/01/01 12:49:15;;;;;;;1.77;1.00;;;16.60;99.90;;;;;;5073865;28;20956;-75
2023/01/01 12:51:50;;;;;;;2.60;1.40;;;16.60;99.90;;;;;;5074136;28;20468;-74
2023/01/01 12:54:54;;;;;;;2.13;1.00;;;16.70;99.90;;;;;;5059922;28;20443;-74
2023/01/01 12:57:26;;;;;;;3.50;1.33;;;;;;;;;;5061997;28;20679;-74
2023/01/01 12:59:54;;;;;;;2.10;1.40;;;;;;;;;;5073809;28;20476;-74
2023/01/01 13:02:22;;;;;;;1.47;1.17;;;;;;;;;;5072794;28;20492;-75
2023/01/01 13:04:50;;;;;;;4.03;1.50;;;;;;;;;;5073776;28;20456;-74
2023/01/01 13:07:24;;;;;;;8.43;1.50;;;;;;;;;;5059315;28;20459;-74
2023/01/01 13:09:52;;;;;;;1.20;1.10;;;;;;;;;;5072955;28;20474;-74